Etusivu
METAR-TAF:

METAR-TAF

Lentoasemat :

Leknesin lentoasema

Leknes, Norja

Leveyspiiri: 68-09N, Pituuspiiri: 013-37E, korkeus merenpinnasta: 2 m

Tämänhetkinen sää

Tämä raportti tehtiin 5 tuntia ja 10 minuuttia sitten, kello 21.50 UTC
Tuuli 2 kn eri suunnista
Lämpötila -3°C
Kosteus 93%
Ilmanpaine 993 hPa
Näkyvyys: 8000 m
Muutamia pilviä 700 ft:n korkeudessa
Hajonneita pilviä 2800 ft:n korkeudessa
heikkoa lumisadetta

METAR: ENLK 242150Z VRB02KT 9999 8000S -SN FEW007 BKN028 M03/M04 Q0993

Aika: 04:00 (03:00 UTC)


TAF: puuttuu

Säähavainnot ja -ennusteet yli 4000 lentoasemalta (METAR- ja TAF-raportit).

Käytössä olevat sääasemat on merkitty karttaan keltaisilla ja punaisilla pisteillä.

Aseta hiiri pisteen päälle nähdäksesi sääaseman nimen.

Klikkaa sitten nähdäksesi säähavainnot ja -ennusteet.

Kartan vaihtaminen: klikkaa mustalla rastilla varustettuja vihreitä pisteitä, niin voit zoomata sisään; viivalla varustettua vihreää pistettä, niin voit zoomata ulos tai vihreitä nuolia, niin pääset viereisille kartoille.


METAR-TAF: